createdAt,value
2017-06-11T00:01:34.060Z,18.63
2017-06-11T00:04:00.252Z,10.90
2017-06-11T00:06:26.465Z,13.80
2017-06-11T00:08:52.632Z,14.53
2017-06-11T00:11:18.835Z,12.30
2017-06-11T00:14:00.001Z,11.60
2017-06-11T00:16:26.618Z,15.23
2017-06-11T00:18:52.755Z,13.90
2017-06-11T00:21:18.930Z,14.37
2017-06-11T00:23:45.107Z,11.53
2017-06-11T00:26:11.285Z,17.23
2017-06-11T00:28:37.537Z,18.33
2017-06-11T00:31:03.717Z,12.10
2017-06-11T00:33:30.052Z,12.93
2017-06-11T00:35:56.351Z,12.03
2017-06-11T00:38:23.239Z,12.60
2017-06-11T00:40:49.422Z,12.70
2017-06-11T00:43:15.635Z,13.83
2017-06-11T00:45:42.533Z,11.03
2017-06-11T00:48:08.713Z,11.53
2017-06-11T00:50:35.653Z,15.50
2017-06-11T00:53:01.848Z,12.17
2017-06-11T00:55:28.126Z,12.43
2017-06-11T00:57:54.273Z,12.93
2017-06-11T01:00:20.527Z,20.20
2017-06-11T01:02:46.697Z,11.77
2017-06-11T01:05:12.946Z,14.67
2017-06-11T01:07:39.836Z,13.20
2017-06-11T01:10:06.009Z,23.10
2017-06-11T01:12:32.895Z,12.90
2017-06-11T01:14:59.016Z,15.30
2017-06-11T01:17:25.602Z,14.13
2017-06-11T01:19:51.812Z,14.80
2017-06-11T01:22:18.015Z,12.80
2017-06-11T01:24:44.222Z,14.03
2017-06-11T01:27:10.386Z,13.20
2017-06-11T01:29:36.557Z,12.77
2017-06-11T01:32:02.726Z,12.50
2017-06-11T01:34:28.877Z,11.97
2017-06-11T01:36:55.089Z,13.43
2017-06-11T01:39:21.301Z,13.10
2017-06-11T01:41:47.874Z,12.50
2017-06-11T01:44:14.148Z,13.27
2017-06-11T01:46:40.282Z,14.30
2017-06-11T01:49:06.492Z,12.33
2017-06-11T01:51:32.668Z,18.03
2017-06-11T01:53:58.869Z,13.27
2017-06-11T01:56:25.002Z,13.07
2017-06-11T01:58:51.164Z,11.67
2017-06-11T02:01:17.587Z,16.03
2017-06-11T02:03:43.768Z,12.83
2017-06-11T02:06:09.957Z,13.27
2017-06-11T02:08:36.102Z,16.90
2017-06-11T02:11:02.242Z,15.13
2017-06-11T02:13:28.466Z,12.57
2017-06-11T02:15:54.598Z,11.00
2017-06-11T02:18:21.925Z,13.47
2017-06-11T02:20:48.058Z,19.93
2017-06-11T02:23:14.203Z,14.70
2017-06-11T02:25:40.372Z,14.73
2017-06-11T02:28:06.485Z,13.73
2017-06-11T02:30:32.621Z,18.27
2017-06-11T02:32:58.732Z,15.13
2017-06-11T02:35:24.906Z,16.03
2017-06-11T02:37:51.005Z,15.83
2017-06-11T02:40:17.098Z,17.60
2017-06-11T02:42:43.584Z,15.50
2017-06-11T02:45:09.899Z,16.63
2017-06-11T02:47:36.060Z,14.10
2017-06-11T02:50:02.241Z,13.90
2017-06-11T02:52:28.380Z,15.03
2017-06-11T02:54:54.789Z,12.97
2017-06-11T02:57:20.902Z,14.67
2017-06-11T02:59:47.787Z,13.83
2017-06-11T03:02:13.986Z,14.57
2017-06-11T03:04:40.101Z,14.10
2017-06-11T03:07:06.353Z,14.70
2017-06-11T03:09:32.576Z,12.83
2017-06-11T03:12:10.909Z,14.20
2017-06-11T03:14:37.040Z,14.77
2017-06-11T03:17:03.170Z,14.00
2017-06-11T03:19:29.292Z,17.30
2017-06-11T03:21:55.437Z,13.03
2017-06-11T03:24:21.949Z,14.30
2017-06-11T03:26:48.066Z,13.50
2017-06-11T03:29:14.196Z,12.20
2017-06-11T03:31:40.350Z,13.40
2017-06-11T03:34:06.466Z,17.37
2017-06-11T03:36:32.613Z,18.10
2017-06-11T03:38:58.752Z,14.63
2017-06-11T03:41:24.902Z,14.40
2017-06-11T03:43:51.068Z,16.40
2017-06-11T03:46:17.231Z,13.90
2017-06-11T03:48:43.836Z,15.87
2017-06-11T03:51:25.914Z,15.30
2017-06-11T03:53:52.329Z,17.10
2017-06-11T03:56:18.438Z,15.93
2017-06-11T03:58:44.595Z,14.63
2017-06-11T04:01:10.748Z,20.93
2017-06-11T04:03:36.906Z,13.33
2017-06-11T04:06:03.052Z,16.90
2017-06-11T04:08:29.246Z,15.20
2017-06-11T04:10:55.395Z,17.00
2017-06-11T04:13:21.718Z,14.10
2017-06-11T04:15:47.893Z,18.10
2017-06-11T04:18:14.068Z,16.23
2017-06-11T04:20:40.190Z,15.03
2017-06-11T04:23:06.320Z,14.93
2017-06-11T04:25:32.514Z,16.73
2017-06-11T04:27:58.608Z,12.17
2017-06-11T04:30:24.732Z,15.50
2017-06-11T04:32:50.878Z,12.17
2017-06-11T04:35:17.190Z,10.23
2017-06-11T04:37:43.357Z,9.67
2017-06-11T04:40:09.486Z,15.00
2017-06-11T04:42:35.652Z,9.73
2017-06-11T04:45:01.854Z,8.33
2017-06-11T04:47:28.021Z,12.30
2017-06-11T04:49:54.942Z,6.93
2017-06-11T04:52:21.564Z,9.47
2017-06-11T04:54:47.737Z,11.30
2017-06-11T04:57:14.091Z,9.60
2017-06-11T04:59:40.207Z,8.70
2017-06-11T05:02:06.369Z,7.37
2017-06-11T05:04:33.292Z,9.10
2017-06-11T05:06:59.486Z,9.10
2017-06-11T05:09:26.346Z,6.47
2017-06-11T05:11:52.569Z,7.83
2017-06-11T05:14:19.424Z,7.80
2017-06-11T05:16:45.579Z,7.73
2017-06-11T05:19:11.802Z,12.87
2017-06-11T05:21:37.948Z,7.53
2017-06-11T05:24:04.154Z,7.40
2017-06-11T05:26:30.277Z,8.63
2017-06-11T05:28:56.437Z,11.80
2017-06-11T05:31:37.574Z,9.17
2017-06-11T05:34:03.723Z,8.33
2017-06-11T05:36:29.861Z,4.47
2017-06-11T05:38:56.063Z,8.03
2017-06-11T05:41:22.361Z,8.50
2017-06-11T05:43:48.557Z,8.27
2017-06-11T05:46:14.701Z,7.47
2017-06-11T05:48:40.860Z,5.80
2017-06-11T05:51:07.008Z,6.83
2017-06-11T05:53:33.196Z,11.73
2017-06-11T05:55:59.355Z,7.50
2017-06-11T05:58:25.549Z,8.00
2017-06-11T06:00:51.726Z,6.97
2017-06-11T06:03:18.010Z,4.37
2017-06-11T06:05:44.193Z,8.73
2017-06-11T06:08:10.384Z,9.00
2017-06-11T06:10:36.536Z,9.03
2017-06-11T06:13:03.090Z,9.00
2017-06-11T06:15:29.243Z,7.20
2017-06-11T06:17:55.398Z,6.00
2017-06-11T06:20:21.570Z,6.30
2017-06-11T06:22:47.756Z,7.90
2017-06-11T06:25:14.448Z,7.70
2017-06-11T06:27:40.602Z,8.37
2017-06-11T06:30:07.541Z,5.60
2017-06-11T06:32:33.738Z,5.13
2017-06-11T06:34:59.902Z,6.90
2017-06-11T06:37:27.140Z,6.27
2017-06-11T06:39:54.020Z,9.50
2017-06-11T06:42:20.200Z,6.00
2017-06-11T06:44:46.378Z,8.13
2017-06-11T06:47:12.548Z,6.37
2017-06-11T06:49:39.203Z,8.33
2017-06-11T06:52:05.326Z,6.30
2017-06-11T06:54:31.495Z,7.13
2017-06-11T06:56:57.732Z,6.40
2017-06-11T06:59:23.900Z,7.90
2017-06-11T07:01:50.097Z,7.43
2017-06-11T07:04:16.347Z,9.20
2017-06-11T07:06:42.610Z,6.30
2017-06-11T07:09:08.897Z,10.40
2017-06-11T07:11:35.089Z,11.33
2017-06-11T07:14:01.672Z,7.07
2017-06-11T07:16:28.633Z,8.00
2017-06-11T07:18:54.753Z,6.00
2017-06-11T07:21:20.873Z,6.57
2017-06-11T07:23:47.027Z,6.03
2017-06-11T07:26:13.197Z,5.10
2017-06-11T07:28:39.440Z,4.43
2017-06-11T07:31:05.734Z,8.37
2017-06-11T07:33:31.917Z,8.00
2017-06-11T07:35:58.152Z,5.57
2017-06-11T07:38:24.354Z,6.17
2017-06-11T07:40:50.505Z,7.10
2017-06-11T07:43:16.727Z,7.30
2017-06-11T07:45:42.904Z,5.03
2017-06-11T07:48:09.086Z,9.10
2017-06-11T07:50:35.750Z,8.60
2017-06-11T07:53:02.059Z,4.03
2017-06-11T07:55:28.196Z,5.40
2017-06-11T07:57:54.365Z,4.03
2017-06-11T08:00:20.549Z,4.20
2017-06-11T08:02:47.526Z,7.23
2017-06-11T08:05:13.705Z,3.53
2017-06-11T08:07:39.872Z,4.90
2017-06-11T08:10:06.018Z,3.77
2017-06-11T08:12:32.248Z,3.80
2017-06-11T08:14:58.523Z,4.20
2017-06-11T08:17:25.444Z,4.60
2017-06-11T08:19:51.643Z,4.83
2017-06-11T08:22:17.852Z,3.00
2017-06-11T08:24:44.833Z,4.30
2017-06-11T08:27:11.016Z,4.90
2017-06-11T08:29:37.181Z,5.77
2017-06-11T08:32:03.394Z,2.80
2017-06-11T08:34:29.559Z,6.00
2017-06-11T08:36:56.020Z,5.70
2017-06-11T08:39:22.166Z,4.13
2017-06-11T08:41:48.335Z,8.07
2017-06-11T08:44:14.549Z,8.57
2017-06-11T08:46:40.760Z,7.53
2017-06-11T08:49:08.461Z,4.57
2017-06-11T08:51:34.714Z,5.20
2017-06-11T08:54:00.932Z,4.20
2017-06-11T08:56:27.087Z,5.40
2017-06-11T08:58:54.101Z,6.97
2017-06-11T09:01:20.360Z,5.10
2017-06-11T09:03:46.537Z,5.70
2017-06-11T09:06:12.713Z,3.07
2017-06-11T09:08:39.294Z,4.27
2017-06-11T09:11:05.549Z,4.80
2017-06-11T09:13:31.775Z,7.63
2017-06-11T09:15:58.050Z,3.40
2017-06-11T09:18:24.217Z,7.23
2017-06-11T09:20:50.574Z,3.97
2017-06-11T09:23:16.744Z,3.10
2017-06-11T09:25:42.878Z,5.07
2017-06-11T09:28:09.777Z,6.23
2017-06-11T09:30:35.913Z,4.77
2017-06-11T09:33:02.063Z,5.30
2017-06-11T09:35:28.214Z,3.80
2017-06-11T09:37:54.412Z,5.60
2017-06-11T09:40:20.577Z,3.47
2017-06-11T09:42:46.747Z,3.80
2017-06-11T09:45:12.924Z,6.10
2017-06-11T09:47:39.090Z,5.07
2017-06-11T09:50:05.281Z,2.20
2017-06-11T09:52:32.294Z,4.33
2017-06-11T09:54:58.515Z,3.50
2017-06-11T09:57:24.717Z,6.00
2017-06-11T09:59:50.843Z,4.93
2017-06-11T10:02:17.085Z,5.83
2017-06-11T10:04:44.094Z,3.03
2017-06-11T10:07:10.342Z,5.73
2017-06-11T10:09:36.519Z,5.17
2017-06-11T10:12:02.728Z,4.03
2017-06-11T10:14:28.969Z,5.37
2017-06-11T10:16:55.157Z,3.77
2017-06-11T10:19:21.385Z,5.00
2017-06-11T10:21:47.561Z,6.43
2017-06-11T10:24:13.725Z,4.37
2017-06-11T10:26:39.960Z,3.53
2017-06-11T10:29:06.181Z,3.20
2017-06-11T10:31:32.335Z,3.87
2017-06-11T10:33:58.546Z,5.60
2017-06-11T10:36:24.799Z,5.80
2017-06-11T10:38:51.880Z,5.30
2017-06-11T10:41:18.001Z,3.20
2017-06-11T10:43:44.108Z,4.90
2017-06-11T10:46:10.307Z,4.00
2017-06-11T10:48:36.603Z,2.80
2017-06-11T10:51:03.174Z,4.60
2017-06-11T10:53:29.321Z,3.73
2017-06-11T10:55:55.600Z,2.23
2017-06-11T10:58:22.469Z,5.63
2017-06-11T11:00:48.641Z,3.10
2017-06-11T11:03:14.812Z,3.00
2017-06-11T11:05:40.948Z,3.23
2017-06-11T11:08:07.181Z,3.90
2017-06-11T11:10:33.456Z,3.23
2017-06-11T11:12:59.611Z,2.60
2017-06-11T11:15:25.884Z,1.87
2017-06-11T11:17:52.077Z,2.90
2017-06-11T11:20:19.422Z,2.00
2017-06-11T11:22:45.769Z,3.63
2017-06-11T11:25:11.976Z,2.07
2017-06-11T11:27:38.144Z,2.10
2017-06-11T11:30:04.350Z,4.23
2017-06-11T11:32:30.603Z,1.87
2017-06-11T11:34:56.800Z,2.67
2017-06-11T11:37:22.980Z,2.13
2017-06-11T11:39:49.523Z,4.07
2017-06-11T11:44:51.508Z,1.80
2017-06-11T11:47:17.682Z,3.33
2017-06-11T11:49:43.791Z,2.70
2017-06-11T11:52:09.971Z,3.70
2017-06-11T11:54:36.230Z,2.03
2017-06-11T11:57:02.400Z,3.00
2017-06-11T11:59:29.614Z,2.23
2017-06-11T12:01:55.785Z,3.40
2017-06-11T12:04:21.926Z,6.23
2017-06-11T12:06:48.129Z,2.87
2017-06-11T12:09:14.300Z,2.57
2017-06-11T12:11:40.484Z,2.73
2017-06-11T12:14:06.718Z,4.33
2017-06-11T12:16:33.732Z,2.50
2017-06-11T12:18:59.845Z,2.50
2017-06-11T12:21:26.027Z,3.50
2017-06-11T12:23:52.249Z,2.57
2017-06-11T12:26:18.420Z,1.90
2017-06-11T12:28:44.589Z,3.13
2017-06-11T12:31:10.785Z,2.30
2017-06-11T12:33:37.040Z,2.80
2017-06-11T12:36:03.266Z,3.00
2017-06-11T12:38:30.621Z,2.27
2017-06-11T12:40:56.768Z,5.87
2017-06-11T12:43:23.026Z,3.03
2017-06-11T12:45:49.659Z,2.27
2017-06-11T12:48:15.833Z,3.13
2017-06-11T12:50:42.029Z,2.93
2017-06-11T12:53:08.957Z,2.07
2017-06-11T12:55:35.108Z,1.50
2017-06-11T12:58:02.391Z,2.17
2017-06-11T13:00:29.326Z,2.70
2017-06-11T13:02:55.518Z,3.53
2017-06-11T13:05:21.676Z,7.40
2017-06-11T13:07:48.619Z,2.00
2017-06-11T13:10:14.788Z,2.50
2017-06-11T13:12:40.982Z,4.40
2017-06-11T13:15:07.855Z,3.30
2017-06-11T13:17:33.981Z,1.95
2017-06-11T13:20:00.190Z,2.33
2017-06-11T13:22:26.457Z,2.57
2017-06-11T13:24:52.608Z,3.25
2017-06-11T13:27:18.796Z,2.28
2017-06-11T13:29:44.994Z,3.00
2017-06-11T13:32:11.197Z,2.12
2017-06-11T13:34:37.424Z,1.77
2017-06-11T13:37:03.616Z,2.33
2017-06-11T13:39:29.758Z,3.50
2017-06-11T13:41:55.938Z,2.30
2017-06-11T13:44:22.268Z,2.53
2017-06-11T13:46:48.498Z,1.98
2017-06-11T13:49:14.659Z,1.70
2017-06-11T13:51:40.789Z,5.18
2017-06-11T13:54:06.963Z,1.33
2017-06-11T13:56:33.168Z,2.50
2017-06-11T13:58:59.432Z,2.08
2017-06-11T14:01:25.599Z,1.83
2017-06-11T14:03:52.863Z,1.55
2017-06-11T14:06:19.156Z,2.70
2017-06-11T14:08:46.479Z,3.35
2017-06-11T14:11:13.419Z,2.83
2017-06-11T14:13:39.586Z,1.83
2017-06-11T14:16:05.816Z,4.78
2017-06-11T14:18:31.983Z,3.27
2017-06-11T14:20:58.162Z,3.47
2017-06-11T14:23:24.598Z,3.30
2017-06-11T14:25:51.845Z,2.00
2017-06-11T14:28:17.996Z,2.50
2017-06-11T14:30:44.217Z,2.60
2017-06-11T14:33:10.374Z,2.20
2017-06-11T14:35:36.617Z,4.33
2017-06-11T14:38:02.756Z,3.80
2017-06-11T14:40:28.942Z,4.07
2017-06-11T14:42:55.137Z,2.00
2017-06-11T14:45:21.312Z,2.87
2017-06-11T14:47:48.322Z,2.77
2017-06-11T14:50:14.526Z,1.60
2017-06-11T14:52:41.857Z,2.17
2017-06-11T14:55:08.772Z,4.50
2017-06-11T14:57:35.038Z,2.20
2017-06-11T15:00:01.202Z,3.83
2017-06-11T15:02:27.729Z,1.87
2017-06-11T15:04:53.865Z,2.17
2017-06-11T15:07:20.082Z,2.53
2017-06-11T15:10:01.457Z,3.00
2017-06-11T15:12:28.356Z,3.47
2017-06-11T15:14:54.650Z,3.83
2017-06-11T15:17:20.865Z,1.90
2017-06-11T15:19:47.119Z,2.40
2017-06-11T15:22:13.408Z,2.67
2017-06-11T15:24:40.350Z,4.27
2017-06-11T15:27:06.625Z,3.87
2017-06-11T15:29:32.849Z,1.80
2017-06-11T15:31:59.127Z,2.30
2017-06-11T15:34:25.333Z,1.87
2017-06-11T15:36:51.519Z,3.17
2017-06-11T15:39:18.131Z,5.20
2017-06-11T15:41:59.308Z,2.60
2017-06-11T15:44:26.959Z,5.53
2017-06-11T15:46:53.140Z,2.33
2017-06-11T15:49:19.296Z,3.87
2017-06-11T15:51:45.529Z,2.50
2017-06-11T15:54:11.777Z,3.13
2017-06-11T15:56:38.004Z,1.97
2017-06-11T15:59:05.034Z,3.87
2017-06-11T16:01:31.238Z,2.83
2017-06-11T16:03:57.451Z,4.03
2017-06-11T16:06:23.634Z,2.57
2017-06-11T16:08:49.870Z,4.30
2017-06-11T16:11:16.072Z,4.40
2017-06-11T16:13:42.302Z,4.93
2017-06-11T16:16:08.617Z,2.07
2017-06-11T16:18:34.777Z,2.40
2017-06-11T16:21:00.936Z,3.10
2017-06-11T16:23:27.165Z,2.60
2017-06-11T16:25:54.061Z,3.20
2017-06-11T16:28:20.273Z,3.30
2017-06-11T16:30:46.511Z,3.60
2017-06-11T16:33:13.082Z,3.03
2017-06-11T16:35:39.403Z,4.80
2017-06-11T16:38:05.741Z,1.53
2017-06-11T16:40:31.953Z,3.57
2017-06-11T16:42:58.096Z,3.10
2017-06-11T16:45:24.308Z,2.50
2017-06-11T16:47:50.516Z,3.10
2017-06-11T16:50:16.692Z,3.67
2017-06-11T16:52:43.845Z,2.97
2017-06-11T16:55:10.006Z,2.90
2017-06-11T16:57:36.202Z,2.70
2017-06-11T17:00:03.205Z,5.63
2017-06-11T17:02:30.195Z,2.93
2017-06-11T17:04:56.417Z,2.70
2017-06-11T17:07:22.592Z,3.73
2017-06-11T17:10:03.850Z,2.47
2017-06-11T17:12:30.071Z,4.63
2017-06-11T17:14:56.234Z,4.33
2017-06-11T17:17:22.443Z,2.40
2017-06-11T17:19:48.777Z,2.00
2017-06-11T17:22:15.016Z,2.80
2017-06-11T17:24:41.274Z,2.97
2017-06-11T17:27:08.347Z,4.60
2017-06-11T17:29:35.491Z,5.50
2017-06-11T17:32:01.618Z,4.30
2017-06-11T17:34:28.130Z,5.17
2017-06-11T17:36:54.460Z,3.60
2017-06-11T17:39:20.673Z,2.80
2017-06-11T17:41:46.927Z,2.83
2017-06-11T17:44:15.876Z,3.00
2017-06-11T17:46:42.357Z,2.77
2017-06-11T17:49:08.866Z,3.67
2017-06-11T17:51:35.172Z,5.70
2017-06-11T17:54:16.300Z,3.00
2017-06-11T17:56:43.175Z,4.00
2017-06-11T17:59:09.402Z,5.77
2017-06-11T18:01:35.674Z,4.40
2017-06-11T18:04:01.895Z,3.57
2017-06-11T18:06:28.221Z,3.40
2017-06-11T18:08:54.352Z,2.73
2017-06-11T18:11:20.906Z,4.43
2017-06-11T18:13:47.158Z,3.93
2017-06-11T18:16:14.158Z,3.63
2017-06-11T18:18:40.431Z,3.23
2017-06-11T18:21:06.637Z,4.30
2017-06-11T18:23:33.195Z,3.93
2017-06-11T18:25:59.408Z,3.20
2017-06-11T18:28:25.698Z,3.77
2017-06-11T18:30:52.131Z,3.23
2017-06-11T18:33:18.314Z,2.77
2017-06-11T18:35:44.512Z,3.73
2017-06-11T18:38:10.715Z,4.57
2017-06-11T18:40:37.128Z,4.40
2017-06-11T18:43:03.379Z,2.90
2017-06-11T18:45:29.577Z,3.90
2017-06-11T18:47:56.677Z,4.47
2017-06-11T18:50:23.089Z,3.33
2017-06-11T18:52:49.359Z,5.33
2017-06-11T18:55:15.561Z,4.30
2017-06-11T18:57:41.752Z,5.50
2017-06-11T19:00:08.031Z,6.50
2017-06-11T19:02:34.229Z,5.80
2017-06-11T19:05:00.343Z,8.07
2017-06-11T19:07:26.574Z,5.40
2017-06-11T19:09:52.754Z,6.90
2017-06-11T19:12:19.392Z,8.17
2017-06-11T19:14:45.573Z,4.80
2017-06-11T19:17:11.802Z,6.43
2017-06-11T19:19:38.029Z,12.40
2017-06-11T19:22:04.250Z,5.37
2017-06-11T19:24:30.756Z,10.63
2017-06-11T19:26:56.904Z,7.63
2017-06-11T19:29:23.877Z,9.13
2017-06-11T19:31:50.062Z,18.37
2017-06-11T19:34:16.371Z,21.37
2017-06-11T19:36:42.928Z,9.27
2017-06-11T19:39:09.084Z,8.00
2017-06-11T19:41:35.276Z,7.70
2017-06-11T19:44:02.272Z,4.70
2017-06-11T19:46:28.443Z,5.97
2017-06-11T19:48:54.645Z,12.10
2017-06-11T19:51:20.886Z,9.57
2017-06-11T19:53:47.062Z,5.23
2017-06-11T19:56:13.441Z,13.87
2017-06-11T19:58:39.689Z,5.70
2017-06-11T20:01:05.972Z,9.37
2017-06-11T20:03:32.172Z,5.77
2017-06-11T20:05:58.371Z,4.67
2017-06-11T20:08:24.500Z,7.43
2017-06-11T20:10:50.712Z,5.13
2017-06-11T20:13:16.917Z,6.03
2017-06-11T20:15:43.062Z,4.43
2017-06-11T20:18:09.301Z,4.53
2017-06-11T20:20:35.498Z,5.77
2017-06-11T20:23:01.654Z,6.20
2017-06-11T20:25:27.833Z,6.33
2017-06-11T20:27:54.036Z,3.80
2017-06-11T20:30:20.209Z,8.77
2017-06-11T20:32:46.437Z,6.60
2017-06-11T20:35:12.670Z,5.40
2017-06-11T20:37:38.829Z,4.10
2017-06-11T20:40:05.154Z,5.60
2017-06-11T20:42:31.310Z,4.47
2017-06-11T20:44:58.471Z,5.60
2017-06-11T20:47:24.709Z,5.57
2017-06-11T20:49:50.871Z,3.97
2017-06-11T20:52:17.081Z,4.90
2017-06-11T20:54:43.691Z,5.07
2017-06-11T20:57:09.873Z,6.43
2017-06-11T20:59:36.010Z,4.87
2017-06-11T21:02:02.428Z,4.37
2017-06-11T21:04:28.616Z,8.17
2017-06-11T21:06:54.839Z,5.37
2017-06-11T21:09:20.980Z,5.47
2017-06-11T21:11:47.106Z,3.80
2017-06-11T21:14:13.345Z,4.90
2017-06-11T21:16:39.505Z,6.50
2017-06-11T21:19:05.742Z,6.57
2017-06-11T21:21:31.905Z,4.70
2017-06-11T21:23:58.177Z,8.37
2017-06-11T21:26:24.390Z,5.90
2017-06-11T21:28:50.561Z,5.03
2017-06-11T21:31:17.506Z,5.27
2017-06-11T21:33:43.669Z,6.33
2017-06-11T21:36:09.826Z,5.80
2017-06-11T21:38:35.997Z,5.90
2017-06-11T21:41:02.196Z,8.00
2017-06-11T21:43:28.851Z,8.93
2017-06-11T21:45:55.180Z,6.63
2017-06-11T21:48:22.129Z,7.47
2017-06-11T21:50:48.308Z,6.90
2017-06-11T21:53:14.504Z,4.97
2017-06-11T21:55:41.013Z,7.13
2017-06-11T21:58:07.183Z,5.50
2017-06-11T22:00:34.296Z,5.17
2017-06-11T22:03:00.501Z,8.20
2017-06-11T22:05:26.634Z,7.03
2017-06-11T22:07:53.177Z,5.13
2017-06-11T22:10:19.409Z,6.93
2017-06-11T22:12:45.624Z,7.60
2017-06-11T22:15:11.781Z,6.03
2017-06-11T22:17:37.931Z,7.90
2017-06-11T22:20:04.534Z,5.73
2017-06-11T22:22:30.689Z,6.10
2017-06-11T22:24:56.852Z,5.80
2017-06-11T22:27:23.009Z,7.07
2017-06-11T22:29:49.299Z,7.40
2017-06-11T22:32:15.838Z,6.70
2017-06-11T22:34:42.055Z,6.57
2017-06-11T22:37:08.266Z,5.00
2017-06-11T22:39:35.192Z,8.07
2017-06-11T22:42:01.392Z,6.10
2017-06-11T22:44:27.585Z,10.77
2017-06-11T22:46:53.789Z,8.00
2017-06-11T22:49:20.665Z,6.67
2017-06-11T22:51:47.001Z,10.87
2017-06-11T22:54:13.171Z,8.80
2017-06-11T22:56:39.346Z,6.20
2017-06-11T22:59:05.561Z,6.83
2017-06-11T23:01:31.669Z,8.30
2017-06-11T23:03:57.924Z,10.57
2017-06-11T23:06:24.135Z,9.30
2017-06-11T23:08:50.795Z,11.27
2017-06-11T23:11:16.967Z,9.83
2017-06-11T23:13:43.322Z,9.40
2017-06-11T23:16:09.505Z,9.03
2017-06-11T23:18:35.692Z,11.53
2017-06-11T23:21:02.142Z,13.77
2017-06-11T23:23:28.341Z,10.17
2017-06-11T23:25:54.497Z,9.47
2017-06-11T23:28:20.632Z,10.03
2017-06-11T23:30:46.773Z,8.67
2017-06-11T23:33:13.244Z,11.30
2017-06-11T23:35:39.574Z,10.90
2017-06-11T23:38:05.722Z,9.47
2017-06-11T23:40:31.897Z,9.60
2017-06-11T23:42:58.068Z,10.00
2017-06-11T23:45:24.260Z,8.27
2017-06-11T23:47:50.404Z,8.23
2017-06-11T23:50:16.556Z,10.63
2017-06-11T23:52:43.507Z,8.57
2017-06-11T23:55:09.740Z,9.37
2017-06-11T23:57:36.321Z,10.20
